Time;durP1;ratioP1;P1;durP2;ratioP2;P2;SDS_P1;SDS_P2;PMS_P1;PMS_P2;Temp;Humidity;BMP_temperature;BMP_pressure;BME280_temperature;BME280_humidity;BME280_pressure;Samples;Min_cycle;Max_cycle;Signal;HPM_P1;HPM_P2
2022/01/03 00:02:22;;;;;;;;;;;;;;;2.69;79.43;95711.50;5115569;28;1902;-47
2022/01/03 00:04:48;;;;;;;;;;;;;;;2.58;79.32;95720.16;5116725;28;977;-47
2022/01/03 00:07:15;;;;;;;;;;;;;;;2.41;79.37;95713.28;5116992;28;1070;-47
2022/01/03 00:09:41;;;;;;;;;;;;;;;2.40;79.65;95722.16;5116793;28;1078;-47
2022/01/03 00:12:08;;;;;;;;;;;;;;;2.43;78.02;95703.50;5116405;28;1177;-47
2022/01/03 00:14:34;;;;;;;;;;;;;;;2.17;78.39;95699.84;5116649;28;1311;-47
2022/01/03 00:17:01;;;;;;;;;;;;;;;2.22;78.83;95696.91;5116748;28;1030;-47
2022/01/03 00:19:27;;;;;;;;;;;;;;;2.19;78.56;95697.13;5116420;28;1183;-47
2022/01/03 00:21:54;;;;;;;;;;;;;;;2.00;79.95;95705.34;5116597;28;993;-47
2022/01/03 00:24:24;;;;;;;;;;;;;;;2.09;79.51;95705.63;5116437;28;1913;-47
2022/01/03 00:26:55;;;;;;;;;;;;;;;2.26;79.15;95706.34;5116331;28;1195;-47
2022/01/03 00:29:22;;;;;;;;;;;;;;;2.42;79.53;95698.31;5116565;28;977;-47
2022/01/03 00:31:49;;;;;;;;;;;;;;;2.32;77.78;95703.31;5116450;28;1105;-47
2022/01/03 00:34:16;;;;;;;;;;;;;;;2.19;79.00;95697.13;5116179;28;1049;-47
2022/01/03 00:36:44;;;;;;;;;;;;;;;2.24;80.27;95695.03;5116164;28;1067;-47
2022/01/03 00:39:10;;;;;;;;;;;;;;;2.29;79.51;95700.88;5116430;28;1071;-47
2022/01/03 00:41:38;;;;;;;;;;;;;;;2.22;79.79;95692.50;5114694;28;1083;-47
2022/01/03 00:44:04;;;;;;;;;;;;;;;2.31;80.05;95691.06;5116107;28;1910;-47
2022/01/03 00:46:32;;;;;;;;;;;;;;;2.30;80.13;95681.47;5115932;28;1090;-47
2022/01/03 00:48:59;;;;;;;;;;;;;;;2.22;79.41;95679.31;5115875;28;1954;-47
2022/01/03 00:51:25;;;;;;;;;;;;;;;2.06;79.07;95686.50;5116212;28;1050;-47
2022/01/03 00:53:51;;;;;;;;;;;;;;;2.00;79.98;95682.44;5115902;28;956;-47
2022/01/03 00:56:22;;;;;;;;;;;;;;;2.26;79.82;95677.34;5116163;28;969;-47
2022/01/03 00:58:58;;;;;;;;;;;;;;;2.08;79.33;95674.88;5116127;28;1071;-47
2022/01/03 01:01:25;;;;;;;;;;;;;;;2.10;79.90;95672.16;5115691;28;1042;-47
2022/01/03 01:03:55;;;;;;;;;;;;;;;2.11;79.76;95658.88;5115767;28;1906;-47
2022/01/03 01:06:22;;;;;;;;;;;;;;;1.98;79.52;95657.97;5116390;28;973;-47
2022/01/03 01:08:54;;;;;;;;;;;;;;;1.92;79.80;95643.38;5115621;28;1040;-46
2022/01/03 01:11:24;;;;;;;;;;;;;;;1.83;79.32;95637.81;5115572;28;1196;-47
2022/01/03 01:13:51;;;;;;;;;;;;;;;1.66;80.54;95642.34;5115659;28;1094;-47
2022/01/03 01:16:17;;;;;;;;;;;;;;;1.59;81.91;95633.13;5115532;28;1027;-47
2022/01/03 01:18:44;;;;;;;;;;;;;;;1.73;81.23;95642.81;5115396;28;1048;-47
2022/01/03 01:21:10;;;;;;;;;;;;;;;1.88;80.66;95641.03;5115427;28;1071;-47
2022/01/03 01:23:40;;;;;;;;;;;;;;;1.98;80.12;95641.28;5115406;28;1987;-46
2022/01/03 01:28:50;;;;;;;;;;;;;;;2.07;80.32;95622.25;5115111;28;1075;-46
2022/01/03 01:31:19;;;;;;;;;;;;;;;2.18;80.18;95618.91;5115547;28;1125;-46
2022/01/03 01:33:45;;;;;;;;;;;;;;;1.92;79.25;95619.63;5114993;28;1031;-46
2022/01/03 01:36:12;;;;;;;;;;;;;;;1.84;80.34;95613.13;5115242;28;1047;-47
2022/01/03 01:38:39;;;;;;;;;;;;;;;1.85;80.19;95620.13;5114908;28;1024;-47
2022/01/03 01:41:06;;;;;;;;;;;;;;;1.71;80.00;95607.81;5114888;28;1040;-47
2022/01/03 01:43:34;;;;;;;;;;;;;;;1.82;80.48;95615.03;5115064;28;2015;-45
2022/01/03 01:46:02;;;;;;;;;;;;;;;1.85;80.54;95614.84;5114901;28;1932;-46
2022/01/03 01:48:32;;;;;;;;;;;;;;;1.63;77.24;95612.69;5114752;28;1048;-47
2022/01/03 01:50:59;;;;;;;;;;;;;;;1.65;79.66;95611.66;5115083;28;1030;-46
2022/01/03 01:53:25;;;;;;;;;;;;;;;1.87;79.83;95613.78;5114203;28;1858;-47
2022/01/03 01:55:54;;;;;;;;;;;;;;;1.86;79.98;95617.38;5114663;28;1052;-47
2022/01/03 01:58:29;;;;;;;;;;;;;;;1.75;80.55;95620.69;5114521;28;1287;-47
2022/01/03 02:00:59;;;;;;;;;;;;;;;1.69;80.06;95631.63;5114644;28;1012;-46
2022/01/03 02:03:25;;;;;;;;;;;;;;;1.72;79.53;95638.47;5114256;28;1910;-47
2022/01/03 02:05:54;;;;;;;;;;;;;;;1.63;79.51;95629.38;5114804;28;979;-47
2022/01/03 02:08:27;;;;;;;;;;;;;;;1.54;80.60;95622.03;5114206;28;1044;-47
2022/01/03 02:11:02;;;;;;;;;;;;;;;1.70;81.62;95616.66;5114715;28;980;-47
2022/01/03 02:13:29;;;;;;;;;;;;;;;1.81;81.97;95622.09;5094013;28;1242;-48
2022/01/03 02:16:03;;;;;;;;;;;;;;;1.82;81.45;95612.38;5094114;28;992;-47
2022/01/03 02:18:30;;;;;;;;;;;;;;;1.81;80.74;95613.34;5093904;28;963;-47
2022/01/03 02:20:57;;;;;;;;;;;;;;;1.86;80.48;95601.56;5093850;28;1051;-47
2022/01/03 02:23:23;;;;;;;;;;;;;;;1.78;80.36;95593.28;5093929;28;2055;-47
2022/01/03 02:25:49;;;;;;;;;;;;;;;1.85;80.51;95599.03;5094078;28;981;-47
2022/01/03 02:28:20;;;;;;;;;;;;;;;2.06;79.97;95594.16;5093973;28;972;-47
2022/01/03 02:30:46;;;;;;;;;;;;;;;2.04;80.02;95581.06;5093998;28;982;-47
2022/01/03 02:33:12;;;;;;;;;;;;;;;2.12;80.29;95583.22;5093920;28;1060;-47
2022/01/03 02:35:39;;;;;;;;;;;;;;;2.36;79.50;95578.13;5093780;28;1011;-47
2022/01/03 02:38:07;;;;;;;;;;;;;;;2.36;79.81;95566.75;5093639;28;1024;-47
2022/01/03 02:40:33;;;;;;;;;;;;;;;2.17;79.99;95572.38;5093487;28;1928;-47
2022/01/03 02:42:59;;;;;;;;;;;;;;;2.06;78.87;95566.00;5093658;28;1918;-46
2022/01/03 02:45:26;;;;;;;;;;;;;;;1.77;78.67;95577.56;5093746;28;976;-47
2022/01/03 02:47:56;;;;;;;;;;;;;;;1.48;81.41;95573.19;5093373;28;1019;-46
2022/01/03 02:50:23;;;;;;;;;;;;;;;1.61;81.27;95575.88;5093766;28;1043;-47
2022/01/03 02:52:49;;;;;;;;;;;;;;;1.69;81.09;95573.63;5093483;28;1180;-47
2022/01/03 02:55:16;;;;;;;;;;;;;;;1.77;80.72;95567.03;5093538;28;999;-47
2022/01/03 02:57:43;;;;;;;;;;;;;;;1.75;80.09;95580.31;5093481;28;1964;-47
2022/01/03 03:00:20;;;;;;;;;;;;;;;1.55;80.27;95573.63;5093299;28;1177;-47
2022/01/03 03:02:47;;;;;;;;;;;;;;;1.58;80.35;95570.81;5093240;28;1914;-47
2022/01/03 03:05:13;;;;;;;;;;;;;;;1.52;80.34;95568.56;5095126;28;1027;-47
2022/01/03 03:07:40;;;;;;;;;;;;;;;1.53;78.56;95565.81;5097964;28;977;-45
2022/01/03 03:10:08;;;;;;;;;;;;;;;1.19;79.19;95569.69;5097662;28;1057;-47
2022/01/03 03:12:34;;;;;;;;;;;;;;;1.03;80.40;95563.69;5110676;28;1165;-47
2022/01/03 03:15:00;;;;;;;;;;;;;;;0.97;80.00;95563.09;5117471;28;1080;-46
2022/01/03 03:17:26;;;;;;;;;;;;;;;1.02;80.40;95567.25;5117734;28;1004;-46
2022/01/03 03:19:54;;;;;;;;;;;;;;;1.17;79.47;95568.94;5117904;28;985;-47
2022/01/03 03:22:21;;;;;;;;;;;;;;;1.00;78.49;95574.41;5117753;28;1051;-46
2022/01/03 03:24:47;;;;;;;;;;;;;;;1.05;80.15;95575.81;5117755;28;1960;-46
2022/01/03 03:27:13;;;;;;;;;;;;;;;1.09;80.45;95573.84;5117759;28;1027;-46
2022/01/03 03:29:49;;;;;;;;;;;;;;;1.21;80.14;95580.97;5117417;28;1020;-47
2022/01/03 03:32:16;;;;;;;;;;;;;;;1.35;80.20;95581.00;5117501;28;1030;-47
2022/01/03 03:34:43;;;;;;;;;;;;;;;1.43;80.54;95579.69;5117701;28;1075;-46
2022/01/03 03:37:09;;;;;;;;;;;;;;;1.23;78.92;95584.38;5117402;27;1015;-47
2022/01/03 03:39:36;;;;;;;;;;;;;;;1.14;78.70;95588.44;5117380;28;1090;-47
2022/01/03 03:42:04;;;;;;;;;;;;;;;1.08;79.38;95580.03;5117275;28;1023;-45
2022/01/03 03:44:30;;;;;;;;;;;;;;;1.11;79.66;95578.06;5117454;28;1902;-46
2022/01/03 03:46:56;;;;;;;;;;;;;;;1.10;80.12;95575.50;5116971;28;1062;-46
2022/01/03 03:49:22;;;;;;;;;;;;;;;1.20;79.66;95574.03;5117524;28;1051;-46
2022/01/03 03:51:48;;;;;;;;;;;;;;;1.27;79.17;95567.47;5117134;28;1069;-47
2022/01/03 03:54:14;;;;;;;;;;;;;;;1.21;79.09;95556.44;5117392;28;979;-46
2022/01/03 03:56:40;;;;;;;;;;;;;;;1.18;79.57;95560.13;5116917;28;920;-46
2022/01/03 03:59:06;;;;;;;;;;;;;;;1.17;79.63;95558.41;5116941;28;975;-46
2022/01/03 04:01:32;;;;;;;;;;;;;;;1.20;79.63;95558.22;5116746;28;948;-46
2022/01/03 04:03:58;;;;;;;;;;;;;;;1.08;80.27;95549.31;5116955;28;1983;-46
2022/01/03 04:06:24;;;;;;;;;;;;;;;1.14;80.42;95555.97;5117043;28;1005;-47
2022/01/03 04:08:50;;;;;;;;;;;;;;;1.21;80.17;95553.81;5116818;28;1039;-46
2022/01/03 04:11:17;;;;;;;;;;;;;;;1.28;79.86;95552.50;5116526;28;1216;-46
2022/01/03 04:13:43;;;;;;;;;;;;;;;1.33;79.81;95551.25;5116669;28;1141;-47
2022/01/03 04:16:10;;;;;;;;;;;;;;;1.38;79.66;95553.59;5116486;28;984;-47
2022/01/03 04:18:35;;;;;;;;;;;;;;;1.20;78.69;95547.69;5116988;28;1003;-47
2022/01/03 04:21:01;;;;;;;;;;;;;;;1.23;79.64;95539.59;5116732;28;1034;-46
2022/01/03 04:23:27;;;;;;;;;;;;;;;1.34;79.73;95539.75;5116787;28;1914;-47
2022/01/03 04:25:54;;;;;;;;;;;;;;;1.17;80.15;95545.22;5116234;28;1028;-47
2022/01/03 04:28:20;;;;;;;;;;;;;;;1.12;80.31;95542.03;5116727;28;976;-46
2022/01/03 04:30:46;;;;;;;;;;;;;;;1.20;80.87;95555.59;5116298;28;1024;-47
2022/01/03 04:33:12;;;;;;;;;;;;;;;1.17;80.61;95555.78;5116235;28;1040;-46
2022/01/03 04:35:38;;;;;;;;;;;;;;;0.86;78.74;95559.44;5116510;28;1054;-46
2022/01/03 04:38:05;;;;;;;;;;;;;;;0.83;79.09;95557.81;5116040;28;1019;-46
2022/01/03 04:40:31;;;;;;;;;;;;;;;0.88;80.71;95576.81;5116567;28;967;-45
2022/01/03 04:42:57;;;;;;;;;;;;;;;1.05;80.86;95559.16;5116109;28;1914;-46
2022/01/03 04:45:23;;;;;;;;;;;;;;;1.05;81.14;95554.75;5116324;28;1071;-46
2022/01/03 04:47:49;;;;;;;;;;;;;;;1.03;81.74;95537.34;5115850;28;1197;-46
2022/01/03 04:50:15;;;;;;;;;;;;;;;1.16;81.17;95548.81;5116397;28;998;-46
2022/01/03 04:52:41;;;;;;;;;;;;;;;1.00;80.53;95551.53;5116015;28;1038;-46
2022/01/03 04:55:07;;;;;;;;;;;;;;;0.78;80.83;95547.56;5115898;28;1056;-46
2022/01/03 04:57:34;;;;;;;;;;;;;;;0.75;81.71;95542.47;5115655;28;1055;-46
2022/01/03 05:00:00;;;;;;;;;;;;;;;0.90;82.18;95534.63;5115988;28;977;-46
2022/01/03 05:02:26;;;;;;;;;;;;;;;1.01;81.71;95550.59;5115830;28;1055;-46
2022/01/03 05:04:52;;;;;;;;;;;;;;;1.04;82.25;95547.78;5115778;28;2000;-46
2022/01/03 05:07:18;;;;;;;;;;;;;;;1.10;82.12;95543.91;5115635;28;1017;-46
2022/01/03 05:09:44;;;;;;;;;;;;;;;1.24;81.48;95548.34;5116186;28;1039;-45
2022/01/03 05:12:11;;;;;;;;;;;;;;;1.30;81.53;95558.50;5115292;28;1216;-46
2022/01/03 05:14:37;;;;;;;;;;;;;;;1.36;79.79;95558.13;5115481;28;1103;-46
2022/01/03 05:17:03;;;;;;;;;;;;;;;1.20;80.13;95557.41;5115623;28;1071;-46
2022/01/03 05:19:29;;;;;;;;;;;;;;;1.15;80.95;95547.97;5115475;28;1083;-46
2022/01/03 05:21:55;;;;;;;;;;;;;;;1.08;81.45;95548.44;5115473;28;1044;-46
2022/01/03 05:24:21;;;;;;;;;;;;;;;1.10;82.19;95546.53;5115476;28;1992;-46
2022/01/03 05:26:47;;;;;;;;;;;;;;;1.31;82.54;95542.63;5148380;27;1080;-46
2022/01/03 05:29:13;;;;;;;;;;;;;;;1.37;83.68;95538.75;5114438;28;981;-46
2022/01/03 05:31:39;;;;;;;;;;;;;;;1.39;84.06;95543.94;5115492;28;1067;-46
2022/01/03 05:34:05;;;;;;;;;;;;;;;1.35;83.80;95538.84;5114998;28;1285;-47
2022/01/03 05:36:31;;;;;;;;;;;;;;;1.30;83.22;95569.03;5115128;28;1055;-46
2022/01/03 05:38:57;;;;;;;;;;;;;;;1.26;83.66;95578.91;5114998;28;997;-46
2022/01/03 05:41:23;;;;;;;;;;;;;;;1.26;83.60;95567.53;5115001;28;1046;-46
2022/01/03 05:43:49;;;;;;;;;;;;;;;1.22;82.90;95566.03;5114721;28;1993;-46
2022/01/03 05:46:15;;;;;;;;;;;;;;;1.06;83.76;95564.31;5114829;28;1951;-46
2022/01/03 05:48:41;;;;;;;;;;;;;;;1.00;83.38;95556.78;5115026;28;972;-46
2022/01/03 05:51:07;;;;;;;;;;;;;;;0.86;84.49;95552.38;5114857;28;987;-46
2022/01/03 05:53:33;;;;;;;;;;;;;;;0.93;84.00;95551.06;5114655;28;1080;-46
2022/01/03 05:56:00;;;;;;;;;;;;;;;0.71;84.59;95555.94;5114983;28;1231;-46
2022/01/03 05:58:27;;;;;;;;;;;;;;;0.73;84.65;95546.16;5114838;28;976;-46
2022/01/03 06:00:53;;;;;;;;;;;;;;;0.78;85.07;95547.56;5114781;28;1238;-46
2022/01/03 06:03:22;;;;;;;;;;;;;;;0.88;84.22;95549.66;5114400;28;1906;-46
2022/01/03 06:08:24;;;;;;;;;;;;;;;0.83;84.76;95560.44;5114361;28;1156;-46
2022/01/03 06:10:50;;;;;;;;;;;;;;;0.95;83.70;95554.47;5114681;28;1047;-46
2022/01/03 06:13:17;;;;;;;;;;;;;;;0.87;82.48;95558.47;5114197;28;1216;-46
2022/01/03 06:15:44;;;;;;;;;;;;;;;0.76;82.61;95562.63;5114159;28;1084;-46
2022/01/03 06:18:15;;;;;;;;;;;;;;;0.77;83.01;95563.44;5114617;28;999;-46
2022/01/03 06:20:42;;;;;;;;;;;;;;;0.96;82.75;95571.94;5114636;28;960;-46
2022/01/03 06:23:09;;;;;;;;;;;;;;;0.94;82.80;95573.81;5114718;28;1914;-46
2022/01/03 06:25:35;;;;;;;;;;;;;;;0.74;80.63;95564.50;5114115;28;1020;-46
2022/01/03 06:28:06;;;;;;;;;;;;;;;0.67;80.88;95563.16;5114356;28;1147;-46
2022/01/03 06:30:42;;;;;;;;;;;;;;;0.53;81.09;95574.50;5114163;28;1043;-46
2022/01/03 06:33:08;;;;;;;;;;;;;;;0.47;82.69;95588.00;5114452;28;1002;-46
2022/01/03 06:35:35;;;;;;;;;;;;;;;0.40;83.86;95584.03;5114014;28;975;-46
2022/01/03 06:38:01;;;;;;;;;;;;;;;0.33;85.08;95580.91;5113866;28;1032;-46
2022/01/03 06:40:27;;;;;;;;;;;;;;;0.54;84.26;95577.97;5113845;28;1089;-45
2022/01/03 06:42:53;;;;;;;;;;;;;;;0.53;83.28;95582.41;5113820;28;1941;-46
2022/01/03 06:45:20;;;;;;;;;;;;;;;0.48;83.26;95580.97;5113666;28;1861;-46
2022/01/03 06:47:47;;;;;;;;;;;;;;;0.36;83.67;95578.13;5113939;28;1086;-46
2022/01/03 06:50:13;;;;;;;;;;;;;;;0.45;83.92;95574.09;5113750;28;1014;-46
2022/01/03 06:52:39;;;;;;;;;;;;;;;0.53;83.54;95586.78;5114136;28;976;-46
2022/01/03 06:55:06;;;;;;;;;;;;;;;1.14;81.36;95572.63;5113673;28;1853;-46
2022/01/03 06:57:32;;;;;;;;;;;;;;;2.28;75.81;95583.91;5114085;28;1000;-47
2022/01/03 06:59:58;;;;;;;;;;;;;;;4.65;67.43;95593.06;5113476;28;1020;-46
2022/01/03 07:02:24;;;;;;;;;;;;;;;5.80;62.79;95602.78;5113842;28;1019;-47
2022/01/03 07:04:50;;;;;;;;;;;;;;;4.12;68.11;95598.66;5113531;28;1910;-47
2022/01/03 07:07:16;;;;;;;;;;;;;;;3.03;70.75;95590.41;5113708;28;1059;-47
2022/01/03 07:09:42;;;;;;;;;;;;;;;2.12;74.92;95609.59;5113871;28;973;-46
2022/01/03 07:12:09;;;;;;;;;;;;;;;1.85;77.46;95605.13;5113735;28;1152;-47
2022/01/03 07:19:53;;;;;;;;;;;;;;;2.42;75.39;95590.94;5113337;28;1867;-46
2022/01/03 07:22:19;;;;;;;;;;;;;;;3.17;72.96;95586.81;5113835;28;987;-47
2022/01/03 07:24:45;;;;;;;;;;;;;;;3.20;72.49;95595.41;5113520;28;1909;-47
2022/01/03 07:27:11;;;;;;;;;;;;;;;3.31;73.02;95594.66;5113679;28;1040;-47
2022/01/03 07:29:38;;;;;;;;;;;;;;;3.58;72.58;95594.53;5113735;28;1039;-47
2022/01/03 07:32:05;;;;;;;;;;;;;;;3.54;73.12;95585.13;5113333;28;1030;-47
2022/01/03 07:34:31;;;;;;;;;;;;;;;3.59;73.20;95590.94;5113797;28;1003;-47
2022/01/03 07:36:57;;;;;;;;;;;;;;;3.69;72.25;95581.41;5113416;28;980;-47
2022/01/03 07:39:23;;;;;;;;;;;;;;;3.32;73.43;95578.72;5113646;28;1023;-47
2022/01/03 07:41:49;;;;;;;;;;;;;;;2.85;75.45;95574.88;5113299;28;1024;-47
2022/01/03 07:44:15;;;;;;;;;;;;;;;2.82;76.20;95576.88;5113270;28;2028;-47
2022/01/03 07:46:41;;;;;;;;;;;;;;;2.90;75.74;95567.50;5113791;28;1004;-47
2022/01/03 07:49:07;;;;;;;;;;;;;;;3.26;75.25;95563.28;5113197;28;976;-47
2022/01/03 07:51:34;;;;;;;;;;;;;;;3.51;74.01;95562.41;5115140;28;1071;-46
2022/01/03 07:54:00;;;;;;;;;;;;;;;3.33;74.19;95561.88;5117296;28;1023;-47
2022/01/03 07:56:26;;;;;;;;;;;;;;;3.36;74.13;95557.31;5117238;28;1003;-47
2022/01/03 07:58:52;;;;;;;;;;;;;;;3.30;75.43;95569.16;5117028;28;1052;-47
2022/01/03 08:01:19;;;;;;;;;;;;;;;3.09;75.31;95567.09;5117147;28;1067;-47
2022/01/03 08:03:45;;;;;;;;;;;;;;;3.06;75.68;95571.72;5117044;28;1905;-47
2022/01/03 08:06:11;;;;;;;;;;;;;;;2.97;76.21;95567.91;5117074;28;1017;-46
2022/01/03 08:08:38;;;;;;;;;;;;;;;3.18;76.41;95562.94;5117234;28;1034;-47
2022/01/03 08:11:04;;;;;;;;;;;;;;;3.20;76.02;95571.59;5116503;28;1208;-46
2022/01/03 08:13:30;;;;;;;;;;;;;;;3.04;75.95;95573.63;5116839;28;1096;-47
2022/01/03 08:15:56;;;;;;;;;;;;;;;3.09;75.36;95561.81;5116578;28;1047;-47
2022/01/03 08:18:22;;;;;;;;;;;;;;;3.15;76.24;95557.03;5116564;28;1349;-47
2022/01/03 08:20:51;;;;;;;;;;;;;;;3.49;76.76;95563.44;5116517;28;1055;-46
2022/01/03 08:23:17;;;;;;;;;;;;;;;3.99;75.71;95564.31;5116813;28;1989;-46
2022/01/03 08:25:44;;;;;;;;;;;;;;;4.66;73.19;95560.28;5116661;28;984;-47
2022/01/03 08:28:10;;;;;;;;;;;;;;;4.97;72.05;95564.13;5116564;28;1075;-46
2022/01/03 08:30:36;;;;;;;;;;;;;;;5.27;71.68;95560.06;5116774;28;1031;-47
2022/01/03 08:33:03;;;;;;;;;;;;;;;4.87;72.17;95560.47;5116140;28;977;-47
2022/01/03 08:35:30;;;;;;;;;;;;;;;5.10;71.92;95553.41;5116423;28;1452;-47
2022/01/03 08:37:56;;;;;;;;;;;;;;;4.67;72.81;95562.00;5116259;28;1040;-47
2022/01/03 08:40:23;;;;;;;;;;;;;;;4.79;73.34;95557.56;5116406;28;1067;-47
2022/01/03 08:42:51;;;;;;;;;;;;;;;5.06;72.76;95554.63;5114754;28;1984;-47
2022/01/03 08:45:17;;;;;;;;;;;;;;;5.08;71.78;95545.59;5116218;28;1095;-47
2022/01/03 08:47:44;;;;;;;;;;;;;;;5.20;72.07;95542.97;5115898;28;976;-47
2022/01/03 08:50:10;;;;;;;;;;;;;;;5.25;72.41;95549.59;5116386;28;1035;-47
2022/01/03 08:52:36;;;;;;;;;;;;;;;5.67;71.11;95539.25;5116314;28;1063;-47
2022/01/03 08:55:03;;;;;;;;;;;;;;;5.59;70.44;95536.34;5116107;28;1003;-47
2022/01/03 08:57:29;;;;;;;;;;;;;;;5.57;71.17;95530.31;5115736;28;1984;-47
2022/01/03 08:59:55;;;;;;;;;;;;;;;5.48;71.56;95531.91;5115820;28;967;-47
2022/01/03 09:02:21;;;;;;;;;;;;;;;5.82;70.45;95523.91;5114539;28;1095;-47
2022/01/03 09:04:47;;;;;;;;;;;;;;;6.32;69.43;95504.00;5115673;28;1975;-47
2022/01/03 09:07:14;;;;;;;;;;;;;;;6.47;67.88;95494.81;5115877;28;1067;-47
2022/01/03 09:09:40;;;;;;;;;;;;;;;6.71;68.34;95489.22;5115894;28;1048;-47
2022/01/03 09:12:07;;;;;;;;;;;;;;;6.68;68.96;95478.00;5115314;28;1082;-47
2022/01/03 09:14:34;;;;;;;;;;;;;;;7.07;67.12;95483.59;5115539;28;1315;-47
2022/01/03 09:17:00;;;;;;;;;;;;;;;7.35;66.04;95482.03;5115466;28;1004;-47
2022/01/03 09:19:26;;;;;;;;;;;;;;;7.46;66.61;95473.16;5115640;28;983;-47
2022/01/03 09:22:00;;;;;;;;;;;;;;;8.13;63.36;95461.81;5115408;28;1035;-47
2022/01/03 09:24:31;;;;;;;;;;;;;;;8.56;62.60;95455.25;5115470;28;1984;-47
2022/01/03 09:29:54;;;;;;;;;;;;;;;7.99;65.48;95459.56;5115558;28;964;-47
2022/01/03 09:32:24;;;;;;;;;;;;;;;7.33;67.75;95446.75;5115200;28;1028;-47
2022/01/03 09:34:50;;;;;;;;;;;;;;;7.03;68.92;95440.47;5115125;28;1035;-47
2022/01/03 09:37:20;;;;;;;;;;;;;;;7.00;69.25;95443.38;5115246;28;979;-47
2022/01/03 09:39:46;;;;;;;;;;;;;;;7.08;69.36;95440.09;5115103;28;1044;-47
2022/01/03 09:42:13;;;;;;;;;;;;;;;6.54;70.88;95428.69;5114955;27;1294;-47
2022/01/03 09:44:41;;;;;;;;;;;;;;;6.19;72.95;95420.06;5114954;28;1909;-47
2022/01/03 09:47:08;;;;;;;;;;;;;;;6.02;73.70;95421.47;5115182;28;1055;-47
2022/01/03 09:49:35;;;;;;;;;;;;;;;5.68;75.11;95420.69;5115204;28;1040;-47
2022/01/03 09:52:03;;;;;;;;;;;;;;;5.40;75.48;95419.44;5114780;28;1442;-47
2022/01/03 09:54:29;;;;;;;;;;;;;;;5.35;76.51;95411.00;5114617;28;1146;-47
2022/01/03 09:56:57;;;;;;;;;;;;;;;5.73;76.03;95402.59;5114925;28;1026;-47
2022/01/03 09:59:23;;;;;;;;;;;;;;;5.96;75.37;95390.13;5114542;28;1923;-47
2022/01/03 10:01:49;;;;;;;;;;;;;;;6.43;74.08;95393.28;5114998;28;980;-47
2022/01/03 10:04:15;;;;;;;;;;;;;;;9.16;65.37;95385.66;5114514;28;2265;-47
2022/01/03 10:06:41;;;;;;;;;;;;;;;14.48;49.25;95385.81;5114625;28;1039;-47
2022/01/03 10:09:08;;;;;;;;;;;;;;;18.65;39.47;95379.66;5114346;28;1090;-46
2022/01/03 10:11:35;;;;;;;;;;;;;;;18.92;38.16;95378.66;5114291;28;1157;-46
2022/01/03 10:14:01;;;;;;;;;;;;;;;19.24;36.65;95369.91;5113844;28;1107;-46
2022/01/03 10:16:30;;;;;;;;;;;;;;;18.98;37.16;95363.44;5114457;28;1961;-46
2022/01/03 10:18:58;;;;;;;;;;;;;;;16.01;41.41;95363.88;5114463;28;1063;-45
2022/01/03 10:21:42;;;;;;;;;;;;;;;13.23;48.41;95370.44;5114355;28;948;-45
2022/01/03 10:24:09;;;;;;;;;;;;;;;11.66;54.46;95356.13;5114328;28;1976;-45
2022/01/03 10:26:37;;;;;;;;;;;;;;;11.45;55.57;95350.38;5114230;28;1040;-45
2022/01/03 10:29:17;;;;;;;;;;;;;;;12.58;53.39;95342.72;5113974;28;1075;-45
2022/01/03 10:31:47;;;;;;;;;;;;;;;11.81;55.60;95324.19;5114300;28;1105;-45
2022/01/03 10:34:14;;;;;;;;;;;;;;;12.37;53.95;95321.78;5113968;28;1028;-45
2022/01/03 10:36:42;;;;;;;;;;;;;;;15.06;48.04;95313.47;5114103;28;1061;-45
2022/01/03 10:39:11;;;;;;;;;;;;;;;15.66;46.95;95312.41;5114080;28;1044;-45
2022/01/03 10:41:37;;;;;;;;;;;;;;;16.31;44.98;95310.66;5113952;28;1100;-45
2022/01/03 10:44:03;;;;;;;;;;;;;;;16.90;43.49;95311.41;5113847;28;1902;-45
2022/01/03 10:46:33;;;;;;;;;;;;;;;17.64;42.18;95296.44;5113940;28;1107;-45
2022/01/03 10:49:05;;;;;;;;;;;;;;;18.37;39.98;95283.16;5113772;28;1187;-45
2022/01/03 10:51:32;;;;;;;;;;;;;;;19.29;38.74;95273.34;5113835;28;1034;-45
2022/01/03 10:53:58;;;;;;;;;;;;;;;20.01;37.64;95273.28;5114132;28;1047;-45
2022/01/03 10:56:36;;;;;;;;;;;;;;;21.14;35.62;95268.94;5113718;28;1049;-45
2022/01/03 10:59:14;;;;;;;;;;;;;;;21.30;34.26;95272.13;5113813;28;979;-46
2022/01/03 11:01:41;;;;;;;;;;;;;;;19.39;37.89;95264.78;5114052;28;1000;-45
2022/01/03 11:04:09;;;;;;;;;;;;;;;16.23;42.84;95262.25;5113922;28;1902;-46
2022/01/03 11:11:47;;;;;;;;;;;;;;;12.91;53.13;95246.06;5113387;28;1200;-44
2022/01/03 11:14:30;;;;;;;;;;;;;;;13.39;52.22;95229.91;5113631;28;1119;-44
2022/01/03 11:16:57;;;;;;;;;;;;;;;12.07;55.01;95241.03;5113985;28;1030;-43
2022/01/03 11:19:36;;;;;;;;;;;;;;;11.95;55.77;95231.66;5113868;28;995;-45
2022/01/03 11:22:02;;;;;;;;;;;;;;;12.51;54.76;95231.75;5113618;28;1051;-45
2022/01/03 11:24:28;;;;;;;;;;;;;;;12.67;54.48;95222.81;5113660;28;2000;-44
2022/01/03 11:26:55;;;;;;;;;;;;;;;13.20;52.19;95210.53;5116062;28;1177;-44
2022/01/03 11:29:22;;;;;;;;;;;;;;;12.90;53.16;95217.56;5117886;28;1019;-44
2022/01/03 11:31:50;;;;;;;;;;;;;;;12.40;54.19;95216.03;5117417;28;1086;-44
2022/01/03 11:34:21;;;;;;;;;;;;;;;12.66;53.61;95211.25;5117650;28;968;-44
2022/01/03 11:36:48;;;;;;;;;;;;;;;12.89;53.91;95199.78;5117326;28;1043;-44
2022/01/03 11:39:16;;;;;;;;;;;;;;;12.59;54.57;95204.91;5117702;28;988;-44
2022/01/03 11:41:43;;;;;;;;;;;;;;;12.29;54.67;95203.78;5117428;28;961;-43
2022/01/03 11:44:12;;;;;;;;;;;;;;;11.73;57.46;95191.09;5117633;28;1917;-43
2022/01/03 11:46:40;;;;;;;;;;;;;;;11.33;58.03;95190.06;5117522;28;980;-43
2022/01/03 11:49:06;;;;;;;;;;;;;;;11.13;58.78;95186.84;5117540;28;977;-43
2022/01/03 11:51:33;;;;;;;;;;;;;;;11.14;58.81;95193.03;5117028;28;988;-43
2022/01/03 11:54:01;;;;;;;;;;;;;;;11.16;59.26;95187.53;5117493;27;1031;-44
2022/01/03 11:56:29;;;;;;;;;;;;;;;11.08;59.36;95181.13;5117264;28;1131;-44
2022/01/03 12:04:29;;;;;;;;;;;;;;;11.65;58.46;95164.31;5117250;28;1910;-44
2022/01/03 12:07:04;;;;;;;;;;;;;;;11.80;58.44;95159.13;5115512;28;1023;-44
2022/01/03 12:09:31;;;;;;;;;;;;;;;11.92;57.38;95151.59;5116947;27;1199;-44
2022/01/03 12:11:58;;;;;;;;;;;;;;;11.91;56.66;95152.59;5116502;28;1157;-44
2022/01/03 12:14:37;;;;;;;;;;;;;;;11.52;58.70;95146.06;5116620;28;1088;-44
2022/01/03 12:17:04;;;;;;;;;;;;;;;11.46;58.49;95144.06;5116935;28;984;-44
2022/01/03 12:19:32;;;;;;;;;;;;;;;11.46;59.00;95151.25;5116938;28;977;-43
2022/01/03 12:21:59;;;;;;;;;;;;;;;11.47;59.08;95147.56;5116508;28;1031;-44
2022/01/03 12:24:29;;;;;;;;;;;;;;;11.39;59.30;95153.75;5116643;28;1990;-44
2022/01/03 12:27:13;;;;;;;;;;;;;;;11.29;59.52;95151.25;5116288;27;1070;-44
2022/01/03 12:32:24;;;;;;;;;;;;;;;11.53;59.01;95139.72;5116415;28;1059;-44
2022/01/03 12:35:10;;;;;;;;;;;;;;;11.56;59.38;95140.38;5116676;28;989;-44
2022/01/03 12:37:36;;;;;;;;;;;;;;;11.57;59.53;95136.69;5115933;28;980;-44
2022/01/03 12:40:02;;;;;;;;;;;;;;;11.52;60.59;95135.34;5116481;28;1015;-44
2022/01/03 12:42:48;;;;;;;;;;;;;;;11.48;60.31;95136.69;5116315;27;1055;-44
2022/01/03 12:45:15;;;;;;;;;;;;;;;11.45;60.10;95126.31;5116245;28;1906;-43
2022/01/03 12:47:41;;;;;;;;;;;;;;;11.33;59.75;95133.84;5116307;28;1020;-43
2022/01/03 12:50:24;;;;;;;;;;;;;;;11.11;60.29;95124.59;5116023;28;1042;-44
2022/01/03 12:52:50;;;;;;;;;;;;;;;11.04;60.51;95112.06;5116469;28;1071;-44
2022/01/03 12:55:34;;;;;;;;;;;;;;;11.06;60.22;95102.88;5115941;28;1071;-44
2022/01/03 12:58:00;;;;;;;;;;;;;;;11.09;60.28;95107.03;5115838;28;1013;-44
2022/01/03 13:00:40;;;;;;;;;;;;;;;11.04;61.24;95104.88;5115895;28;960;-44
2022/01/03 13:03:21;;;;;;;;;;;;;;;10.98;61.53;95102.00;5115447;28;1991;-44
2022/01/03 13:06:07;;;;;;;;;;;;;;;10.85;62.23;95102.47;5115736;28;1451;-44
2022/01/03 13:08:38;;;;;;;;;;;;;;;10.77;62.70;95102.47;5115552;28;1388;-43
2022/01/03 13:11:08;;;;;;;;;;;;;;;10.74;63.11;95101.81;5115370;28;1156;-43
2022/01/03 13:13:35;;;;;;;;;;;;;;;10.80;63.29;95102.16;5115292;28;1975;-44
2022/01/03 13:16:16;;;;;;;;;;;;;;;10.82;62.95;95095.63;5115785;28;973;-44
2022/01/03 13:18:52;;;;;;;;;;;;;;;10.79;62.71;95090.59;5115528;28;996;-44
2022/01/03 13:21:19;;;;;;;;;;;;;;;10.72;63.12;95087.75;5115498;28;960;-44
2022/01/03 13:23:52;;;;;;;;;;;;;;;10.58;63.19;95088.38;5113941;28;1997;-44
2022/01/03 13:26:20;;;;;;;;;;;;;;;10.60;63.30;95085.53;5115540;28;1009;-44
2022/01/03 13:28:47;;;;;;;;;;;;;;;10.64;63.60;95081.53;5115085;28;1028;-46
2022/01/03 13:31:13;;;;;;;;;;;;;;;10.65;63.81;95075.22;5115329;28;1111;-46
2022/01/03 13:33:39;;;;;;;;;;;;;;;10.64;63.69;95079.72;5115068;28;1028;-46
2022/01/03 13:36:05;;;;;;;;;;;;;;;10.65;64.04;95085.91;5115075;28;1032;-46
2022/01/03 13:38:32;;;;;;;;;;;;;;;10.67;63.88;95082.06;5115248;28;1097;-46